sensor_id;sensor_type;location;lat;lon;timestamp;pressure;altitude;pressure_sealevel;temperature;humidity
18678;BME280;9469;51.114;13.914;2022-09-16T00:02:11;97861.56;;;12.67;100.00
18678;BME280;9469;51.114;13.914;2022-09-16T00:07:16;97863.59;;;12.70;100.00
18678;BME280;9469;51.114;13.914;2022-09-16T00:12:24;97869.91;;;12.78;100.00
18678;BME280;9469;51.114;13.914;2022-09-16T00:17:29;97865.03;;;12.68;100.00
18678;BME280;9469;51.114;13.914;2022-09-16T00:22:35;97858.78;;;12.88;100.00
18678;BME280;9469;51.114;13.914;2022-09-16T00:27:43;97866.38;;;12.62;100.00
18678;BME280;9469;51.114;13.914;2022-09-16T00:32:47;97872.13;;;12.52;100.00
18678;BME280;9469;51.114;13.914;2022-09-16T00:37:55;97870.03;;;12.57;100.00
18678;BME280;9469;51.114;13.914;2022-09-16T00:43:04;97873.22;;;12.51;100.00
18678;BME280;9469;51.114;13.914;2022-09-16T00:48:14;97874.38;;;12.62;100.00
18678;BME280;9469;51.114;13.914;2022-09-16T00:53:25;97875.25;;;12.66;100.00
18678;BME280;9469;51.114;13.914;2022-09-16T00:58:37;97871.47;;;12.79;100.00
18678;BME280;9469;51.114;13.914;2022-09-16T01:15:13;97876.16;;;12.82;100.00
18678;BME280;9469;51.114;13.914;2022-09-16T01:20:44;97875.25;;;13.02;100.00
18678;BME280;9469;51.114;13.914;2022-09-16T01:26:12;97873.03;;;13.04;100.00
18678;BME280;9469;51.114;13.914;2022-09-16T01:31:28;97879.59;;;12.94;100.00
18678;BME280;9469;51.114;13.914;2022-09-16T01:36:43;97884.69;;;12.87;100.00
18678;BME280;9469;51.114;13.914;2022-09-16T01:42:09;97886.13;;;12.61;100.00
18678;BME280;9469;51.114;13.914;2022-09-16T01:47:27;97882.47;;;12.65;100.00
18678;BME280;9469;51.114;13.914;2022-09-16T01:52:41;97874.56;;;12.69;100.00
18678;BME280;9469;51.114;13.914;2022-09-16T01:57:52;97879.03;;;12.65;100.00
18678;BME280;9469;51.114;13.914;2022-09-16T02:03:08;97887.25;;;12.72;100.00
18678;BME280;9469;51.114;13.914;2022-09-16T02:08:17;97881.47;;;12.46;100.00
18678;BME280;9469;51.114;13.914;2022-09-16T02:13:28;97889.69;;;12.53;100.00
18678;BME280;9469;51.114;13.914;2022-09-16T02:18:40;97886.69;;;12.54;100.00
18678;BME280;9469;51.114;13.914;2022-09-16T02:23:49;97886.78;;;12.58;100.00
18678;BME280;9469;51.114;13.914;2022-09-16T02:28:55;97884.91;;;12.58;100.00
18678;BME280;9469;51.114;13.914;2022-09-16T02:45:38;97884.50;;;12.68;100.00
18678;BME280;9469;51.114;13.914;2022-09-16T02:50:51;97891.72;;;12.68;100.00
18678;BME280;9469;51.114;13.914;2022-09-16T02:56:02;97887.47;;;12.67;100.00
18678;BME280;9469;51.114;13.914;2022-09-16T03:01:15;97891.50;;;12.73;100.00
18678;BME280;9469;51.114;13.914;2022-09-16T03:06:22;97893.25;;;12.69;100.00
18678;BME280;9469;51.114;13.914;2022-09-16T03:11:45;97887.25;;;12.72;100.00
18678;BME280;9469;51.114;13.914;2022-09-16T03:17:07;97884.47;;;12.80;100.00
18678;BME280;9469;51.114;13.914;2022-09-16T03:22:24;97876.03;;;12.78;100.00
18678;BME280;9469;51.114;13.914;2022-09-16T03:27:39;97878.13;;;12.85;100.00
18678;BME280;9469;51.114;13.914;2022-09-16T03:32:53;97882.59;;;12.81;100.00
18678;BME280;9469;51.114;13.914;2022-09-16T03:37:59;97884.16;;;12.82;100.00
18678;BME280;9469;51.114;13.914;2022-09-16T03:43:09;97868.81;;;12.91;100.00
18678;BME280;9469;51.114;13.914;2022-09-16T03:48:19;97869.81;;;12.74;100.00
18678;BME280;9469;51.114;13.914;2022-09-16T03:53:24;97873.03;;;12.92;100.00
18678;BME280;9469;51.114;13.914;2022-09-16T03:58:29;97873.94;;;12.84;100.00
18678;BME280;9469;51.114;13.914;2022-09-16T04:03:38;97866.13;;;12.79;100.00
18678;BME280;9469;51.114;13.914;2022-09-16T04:08:43;97868.47;;;12.80;100.00
18678;BME280;9469;51.114;13.914;2022-09-16T04:13:50;97870.38;;;12.68;100.00
18678;BME280;9469;51.114;13.914;2022-09-16T04:18:58;97868.56;;;12.60;100.00
18678;BME280;9469;51.114;13.914;2022-09-16T04:24:03;97863.91;;;12.81;100.00
18678;BME280;9469;51.114;13.914;2022-09-16T04:29:14;97870.56;;;12.63;100.00
18678;BME280;9469;51.114;13.914;2022-09-16T04:34:22;97876.81;;;12.79;100.00
18678;BME280;9469;51.114;13.914;2022-09-16T04:39:27;97876.72;;;12.75;100.00
18678;BME280;9469;51.114;13.914;2022-09-16T04:44:32;97873.56;;;12.73;100.00
18678;BME280;9469;51.114;13.914;2022-09-16T04:49:40;97881.25;;;12.75;100.00
18678;BME280;9469;51.114;13.914;2022-09-16T04:54:45;97881.03;;;12.68;100.00
18678;BME280;9469;51.114;13.914;2022-09-16T04:59:51;97883.34;;;12.69;100.00
18678;BME280;9469;51.114;13.914;2022-09-16T05:04:58;97894.59;;;12.87;100.00
18678;BME280;9469;51.114;13.914;2022-09-16T05:10:04;97889.72;;;12.77;100.00
18678;BME280;9469;51.114;13.914;2022-09-16T05:15:10;97887.59;;;12.82;100.00
18678;BME280;9469;51.114;13.914;2022-09-16T05:20:17;97897.94;;;12.72;100.00
18678;BME280;9469;51.114;13.914;2022-09-16T05:25:24;97888.59;;;12.90;100.00
18678;BME280;9469;51.114;13.914;2022-09-16T05:30:29;97888.38;;;12.83;100.00
18678;BME280;9469;51.114;13.914;2022-09-16T05:35:37;97894.38;;;13.04;100.00
18678;BME280;9469;51.114;13.914;2022-09-16T05:40:42;97884.47;;;12.80;100.00
18678;BME280;9469;51.114;13.914;2022-09-16T05:45:50;97892.72;;;12.75;100.00
18678;BME280;9469;51.114;13.914;2022-09-16T05:51:10;97899.47;;;12.85;100.00
18678;BME280;9469;51.114;13.914;2022-09-16T05:56:34;97898.84;;;13.00;100.00
18678;BME280;9469;51.114;13.914;2022-09-16T06:01:39;97896.03;;;12.96;100.00
18678;BME280;9469;51.114;13.914;2022-09-16T06:06:48;97905.41;;;13.15;100.00
18678;BME280;9469;51.114;13.914;2022-09-16T06:11:53;97889.22;;;13.47;100.00
18678;BME280;9469;51.114;13.914;2022-09-16T06:17:03;97887.72;;;16.22;91.13
18678;BME280;9469;51.114;13.914;2022-09-16T06:22:11;97890.00;;;15.44;99.78
18678;BME280;9469;51.114;13.914;2022-09-16T06:27:16;97881.41;;;14.25;100.00
18678;BME280;9469;51.114;13.914;2022-09-16T06:32:23;97874.13;;;13.95;100.00
18678;BME280;9469;51.114;13.914;2022-09-16T06:37:31;97875.00;;;13.71;100.00
18678;BME280;9469;51.114;13.914;2022-09-16T06:42:36;97888.66;;;13.82;100.00
18678;BME280;9469;51.114;13.914;2022-09-16T06:47:42;97885.59;;;13.68;100.00
18678;BME280;9469;51.114;13.914;2022-09-16T06:52:51;97891.38;;;13.97;100.00
18678;BME280;9469;51.114;13.914;2022-09-16T06:57:56;97897.44;;;13.82;100.00
18678;BME280;9469;51.114;13.914;2022-09-16T07:03:02;97890.69;;;13.33;100.00
18678;BME280;9469;51.114;13.914;2022-09-16T07:08:10;97889.88;;;13.44;100.00
18678;BME280;9469;51.114;13.914;2022-09-16T07:13:19;97889.22;;;13.75;100.00
18678;BME280;9469;51.114;13.914;2022-09-16T07:18:23;97893.63;;;13.68;100.00
18678;BME280;9469;51.114;13.914;2022-09-16T07:23:34;97887.03;;;13.65;100.00
18678;BME280;9469;51.114;13.914;2022-09-16T07:28:40;97891.84;;;13.87;100.00
18678;BME280;9469;51.114;13.914;2022-09-16T07:33:48;97891.81;;;13.72;100.00
18678;BME280;9469;51.114;13.914;2022-09-16T07:38:56;97901.09;;;13.90;100.00
18678;BME280;9469;51.114;13.914;2022-09-16T07:44:05;97897.44;;;14.10;100.00
18678;BME280;9469;51.114;13.914;2022-09-16T07:49:12;97893.31;;;13.85;100.00
18678;BME280;9469;51.114;13.914;2022-09-16T07:54:20;97904.06;;;14.00;100.00
18678;BME280;9469;51.114;13.914;2022-09-16T07:59:26;97907.75;;;13.96;100.00
18678;BME280;9469;51.114;13.914;2022-09-16T08:04:31;97906.63;;;13.97;100.00
18678;BME280;9469;51.114;13.914;2022-09-16T08:09:39;97897.56;;;14.29;100.00
18678;BME280;9469;51.114;13.914;2022-09-16T08:14:51;97893.34;;;14.28;100.00
18678;BME280;9469;51.114;13.914;2022-09-16T08:19:56;97888.72;;;14.41;100.00
18678;BME280;9469;51.114;13.914;2022-09-16T08:25:04;97895.31;;;14.15;100.00
18678;BME280;9469;51.114;13.914;2022-09-16T08:30:11;97884.19;;;14.13;100.00
18678;BME280;9469;51.114;13.914;2022-09-16T08:35:16;97878.88;;;14.76;100.00
18678;BME280;9469;51.114;13.914;2022-09-16T08:40:24;97887.25;;;14.59;100.00
18678;BME280;9469;51.114;13.914;2022-09-16T08:45:33;97891.75;;;14.70;100.00
18678;BME280;9469;51.114;13.914;2022-09-16T08:50:46;97897.69;;;14.95;100.00
18678;BME280;9469;51.114;13.914;2022-09-16T08:55:55;97884.13;;;14.72;100.00
18678;BME280;9469;51.114;13.914;2022-09-16T09:01:03;97897.03;;;14.51;100.00
18678;BME280;9469;51.114;13.914;2022-09-16T09:06:25;97896.16;;;14.47;99.70
18678;BME280;9469;51.114;13.914;2022-09-16T09:11:43;97896.41;;;14.58;99.62
18678;BME280;9469;51.114;13.914;2022-09-16T09:16:55;97895.28;;;14.59;98.95
18678;BME280;9469;51.114;13.914;2022-09-16T09:22:12;97894.41;;;14.55;98.31
18678;BME280;9469;51.114;13.914;2022-09-16T09:27:30;97881.28;;;14.96;96.64
18678;BME280;9469;51.114;13.914;2022-09-16T09:32:53;97887.31;;;14.93;96.90
18678;BME280;9469;51.114;13.914;2022-09-16T09:38:17;97888.34;;;15.04;96.39
18678;BME280;9469;51.114;13.914;2022-09-16T09:43:31;97874.56;;;14.87;95.58
18678;BME280;9469;51.114;13.914;2022-09-16T09:48:41;97874.81;;;14.51;96.90
18678;BME280;9469;51.114;13.914;2022-09-16T09:53:51;97859.72;;;15.08;95.67
18678;BME280;9469;51.114;13.914;2022-09-16T09:59:07;97871.34;;;15.32;94.37
18678;BME280;9469;51.114;13.914;2022-09-16T10:04:17;97863.97;;;16.02;93.45
18678;BME280;9469;51.114;13.914;2022-09-16T10:09:23;97857.78;;;15.78;93.51
18678;BME280;9469;51.114;13.914;2022-09-16T10:14:34;97862.47;;;14.77;100.00
18678;BME280;9469;51.114;13.914;2022-09-16T10:19:51;97873.13;;;14.58;100.00
18678;BME280;9469;51.114;13.914;2022-09-16T10:24:58;97893.91;;;14.80;100.00
18678;BME280;9469;51.114;13.914;2022-09-16T10:30:12;97910.22;;;13.09;100.00
18678;BME280;9469;51.114;13.914;2022-09-16T10:35:20;97909.28;;;13.17;100.00
18678;BME280;9469;51.114;13.914;2022-09-16T10:40:26;97873.41;;;13.42;100.00
18678;BME280;9469;51.114;13.914;2022-09-16T10:45:36;97871.69;;;13.90;100.00
18678;BME280;9469;51.114;13.914;2022-09-16T10:50:53;97860.88;;;15.61;100.00
18678;BME280;9469;51.114;13.914;2022-09-16T10:56:00;97868.91;;;16.00;100.00
18678;BME280;9469;51.114;13.914;2022-09-16T11:01:27;97865.13;;;15.28;100.00
18678;BME280;9469;51.114;13.914;2022-09-16T11:06:55;97867.75;;;16.62;100.00
18678;BME280;9469;51.114;13.914;2022-09-16T11:12:28;97864.25;;;15.97;100.00
18678;BME280;9469;51.114;13.914;2022-09-16T11:17:50;97857.44;;;15.80;100.00
18678;BME280;9469;51.114;13.914;2022-09-16T11:23:05;97849.03;;;16.23;100.00
18678;BME280;9469;51.114;13.914;2022-09-16T11:28:37;97856.19;;;16.38;100.00
18678;BME280;9469;51.114;13.914;2022-09-16T11:33:54;97835.69;;;16.27;100.00
18678;BME280;9469;51.114;13.914;2022-09-16T11:39:25;97840.91;;;15.40;100.00
18678;BME280;9469;51.114;13.914;2022-09-16T11:44:41;97840.50;;;15.76;100.00
18678;BME280;9469;51.114;13.914;2022-09-16T11:50:04;97851.53;;;16.35;97.90
18678;BME280;9469;51.114;13.914;2022-09-16T11:55:23;97848.53;;;15.95;98.70
18678;BME280;9469;51.114;13.914;2022-09-16T12:00:32;97842.91;;;16.45;93.84
18678;BME280;9469;51.114;13.914;2022-09-16T12:05:44;97840.78;;;16.55;93.68
18678;BME280;9469;51.114;13.914;2022-09-16T12:10:57;97834.31;;;16.59;94.00
18678;BME280;9469;51.114;13.914;2022-09-16T12:16:07;97827.22;;;17.26;90.54
18678;BME280;9469;51.114;13.914;2022-09-16T12:21:21;97813.53;;;16.79;92.22
18678;BME280;9469;51.114;13.914;2022-09-16T12:26:32;97810.06;;;17.64;90.72
18678;BME280;9469;51.114;13.914;2022-09-16T12:31:42;97805.72;;;16.70;91.58
18678;BME280;9469;51.114;13.914;2022-09-16T12:36:58;97804.25;;;16.27;98.16
18678;BME280;9469;51.114;13.914;2022-09-16T12:47:54;97802.81;;;15.31;100.00
18678;BME280;9469;51.114;13.914;2022-09-16T12:58:54;97784.56;;;16.65;100.00
18678;BME280;9469;51.114;13.914;2022-09-16T13:04:08;97772.13;;;16.80;100.00
18678;BME280;9469;51.114;13.914;2022-09-16T13:09:23;97768.00;;;17.19;100.00
18678;BME280;9469;51.114;13.914;2022-09-16T13:14:33;97766.41;;;16.85;99.34
18678;BME280;9469;51.114;13.914;2022-09-16T13:19:44;97776.75;;;16.83;98.63
18678;BME280;9469;51.114;13.914;2022-09-16T13:25:00;97764.06;;;16.08;94.97
18678;BME280;9469;51.114;13.914;2022-09-16T13:30:26;97770.19;;;15.86;95.25
18678;BME280;9469;51.114;13.914;2022-09-16T13:35:39;97796.88;;;15.41;99.52
18678;BME280;9469;51.114;13.914;2022-09-16T13:40:55;97765.91;;;14.51;100.00
18678;BME280;9469;51.114;13.914;2022-09-16T13:46:11;97767.66;;;15.93;100.00
18678;BME280;9469;51.114;13.914;2022-09-16T13:51:19;97761.50;;;15.93;100.00
18678;BME280;9469;51.114;13.914;2022-09-16T13:56:39;97748.28;;;16.03;100.00
18678;BME280;9469;51.114;13.914;2022-09-16T14:01:53;97755.91;;;15.40;100.00
18678;BME280;9469;51.114;13.914;2022-09-16T14:07:13;97772.41;;;15.04;100.00
18678;BME280;9469;51.114;13.914;2022-09-16T14:12:27;97767.38;;;14.33;100.00
18678;BME280;9469;51.114;13.914;2022-09-16T14:17:38;97773.69;;;14.75;100.00
18678;BME280;9469;51.114;13.914;2022-09-16T14:22:59;97765.88;;;15.59;100.00
18678;BME280;9469;51.114;13.914;2022-09-16T14:28:15;97757.34;;;15.95;100.00
18678;BME280;9469;51.114;13.914;2022-09-16T14:33:25;97755.81;;;15.94;100.00
18678;BME280;9469;51.114;13.914;2022-09-16T14:38:34;97760.00;;;15.95;100.00
18678;BME280;9469;51.114;13.914;2022-09-16T14:44:07;97755.25;;;15.85;100.00
18678;BME280;9469;51.114;13.914;2022-09-16T14:49:14;97753.22;;;16.01;100.00
18678;BME280;9469;51.114;13.914;2022-09-16T14:54:21;97753.47;;;15.93;100.00
18678;BME280;9469;51.114;13.914;2022-09-16T14:59:31;97753.41;;;15.47;99.93
18678;BME280;9469;51.114;13.914;2022-09-16T15:04:38;97748.53;;;15.53;96.85
18678;BME280;9469;51.114;13.914;2022-09-16T15:09:46;97756.13;;;15.32;93.10
18678;BME280;9469;51.114;13.914;2022-09-16T15:14:55;97734.13;;;15.42;91.82
18678;BME280;9469;51.114;13.914;2022-09-16T15:20:00;97732.47;;;15.53;90.34
18678;BME280;9469;51.114;13.914;2022-09-16T15:25:18;97738.03;;;15.25;91.13
18678;BME280;9469;51.114;13.914;2022-09-16T15:30:29;97729.38;;;15.51;90.71
18678;BME280;9469;51.114;13.914;2022-09-16T15:35:34;97730.63;;;15.57;87.51
18678;BME280;9469;51.114;13.914;2022-09-16T15:40:40;97731.69;;;15.52;88.72
18678;BME280;9469;51.114;13.914;2022-09-16T15:45:57;97731.72;;;15.56;87.93
18678;BME280;9469;51.114;13.914;2022-09-16T15:51:05;97745.13;;;15.37;86.64
18678;BME280;9469;51.114;13.914;2022-09-16T15:56:20;97744.31;;;15.74;85.32
18678;BME280;9469;51.114;13.914;2022-09-16T16:01:41;97741.06;;;15.62;87.84
18678;BME280;9469;51.114;13.914;2022-09-16T16:06:57;97742.03;;;15.16;87.39
18678;BME280;9469;51.114;13.914;2022-09-16T16:12:05;97751.84;;;15.27;87.37
18678;BME280;9469;51.114;13.914;2022-09-16T16:17:15;97749.44;;;15.22;87.40
18678;BME280;9469;51.114;13.914;2022-09-16T16:22:23;97746.25;;;14.97;88.13
18678;BME280;9469;51.114;13.914;2022-09-16T16:27:28;97747.25;;;15.08;88.52
18678;BME280;9469;51.114;13.914;2022-09-16T16:32:35;97751.28;;;14.99;87.84
18678;BME280;9469;51.114;13.914;2022-09-16T16:37:41;97755.69;;;14.91;87.51
18678;BME280;9469;51.114;13.914;2022-09-16T16:42:47;97748.88;;;14.94;88.99
18678;BME280;9469;51.114;13.914;2022-09-16T16:47:55;97742.03;;;14.62;90.05
18678;BME280;9469;51.114;13.914;2022-09-16T16:53:03;97743.28;;;14.49;91.31
18678;BME280;9469;51.114;13.914;2022-09-16T16:58:08;97741.91;;;14.23;93.66
18678;BME280;9469;51.114;13.914;2022-09-16T17:03:16;97742.50;;;14.17;94.02
18678;BME280;9469;51.114;13.914;2022-09-16T17:08:23;97736.81;;;14.03;94.33
18678;BME280;9469;51.114;13.914;2022-09-16T17:13:32;97733.91;;;14.08;94.64
18678;BME280;9469;51.114;13.914;2022-09-16T17:18:40;97742.16;;;14.03;95.13
18678;BME280;9469;51.114;13.914;2022-09-16T17:23:46;97743.78;;;13.76;96.40
18678;BME280;9469;51.114;13.914;2022-09-16T17:28:52;97747.91;;;13.58;98.61
18678;BME280;9469;51.114;13.914;2022-09-16T17:34:04;97747.16;;;13.73;98.39
18678;BME280;9469;51.114;13.914;2022-09-16T17:39:13;97745.41;;;13.65;98.31
18678;BME280;9469;51.114;13.914;2022-09-16T17:44:18;97740.72;;;13.46;99.36
18678;BME280;9469;51.114;13.914;2022-09-16T17:49:27;97747.19;;;13.45;99.18
18678;BME280;9469;51.114;13.914;2022-09-16T17:54:33;97760.84;;;13.56;99.02
18678;BME280;9469;51.114;13.914;2022-09-16T17:59:38;97760.09;;;13.43;99.26
18678;BME280;9469;51.114;13.914;2022-09-16T18:04:45;97750.22;;;13.59;97.96
18678;BME280;9469;51.114;13.914;2022-09-16T18:09:51;97759.13;;;13.63;97.80
18678;BME280;9469;51.114;13.914;2022-09-16T18:14:57;97765.34;;;13.40;98.90
18678;BME280;9469;51.114;13.914;2022-09-16T18:20:06;97760.38;;;13.38;99.48
18678;BME280;9469;51.114;13.914;2022-09-16T18:25:12;97763.38;;;13.09;100.00
18678;BME280;9469;51.114;13.914;2022-09-16T18:30:17;97760.13;;;13.16;100.00
18678;BME280;9469;51.114;13.914;2022-09-16T18:35:25;97768.34;;;13.11;100.00
18678;BME280;9469;51.114;13.914;2022-09-16T18:40:31;97767.47;;;12.94;100.00
18678;BME280;9469;51.114;13.914;2022-09-16T18:45:40;97770.84;;;12.79;100.00
18678;BME280;9469;51.114;13.914;2022-09-16T18:50:48;97777.16;;;12.87;100.00
18678;BME280;9469;51.114;13.914;2022-09-16T18:55:53;97774.69;;;12.94;100.00
18678;BME280;9469;51.114;13.914;2022-09-16T19:01:05;97773.81;;;12.90;100.00
18678;BME280;9469;51.114;13.914;2022-09-16T19:06:13;97771.50;;;12.76;100.00
18678;BME280;9469;51.114;13.914;2022-09-16T19:11:18;97774.03;;;12.85;100.00
18678;BME280;9469;51.114;13.914;2022-09-16T19:16:23;97770.16;;;12.82;100.00
18678;BME280;9469;51.114;13.914;2022-09-16T19:21:31;97776.41;;;12.86;100.00
18678;BME280;9469;51.114;13.914;2022-09-16T19:26:36;97780.53;;;12.72;100.00
18678;BME280;9469;51.114;13.914;2022-09-16T19:31:43;97778.78;;;12.64;100.00
18678;BME280;9469;51.114;13.914;2022-09-16T19:36:51;97777.22;;;12.39;100.00
18678;BME280;9469;51.114;13.914;2022-09-16T19:41:55;97781.00;;;12.38;100.00
18678;BME280;9469;51.114;13.914;2022-09-16T19:47:04;97787.00;;;12.35;100.00
18678;BME280;9469;51.114;13.914;2022-09-16T19:52:12;97791.00;;;12.41;100.00
18678;BME280;9469;51.114;13.914;2022-09-16T19:57:17;97779.22;;;12.54;100.00
18678;BME280;9469;51.114;13.914;2022-09-16T20:02:22;97790.53;;;12.51;100.00
18678;BME280;9469;51.114;13.914;2022-09-16T20:07:32;97794.00;;;12.39;100.00
18678;BME280;9469;51.114;13.914;2022-09-16T20:12:37;97776.66;;;12.45;100.00
18678;BME280;9469;51.114;13.914;2022-09-16T20:17:42;97779.78;;;12.23;100.00
18678;BME280;9469;51.114;13.914;2022-09-16T20:22:50;97779.88;;;12.27;100.00
18678;BME280;9469;51.114;13.914;2022-09-16T20:27:55;97775.44;;;12.18;100.00
18678;BME280;9469;51.114;13.914;2022-09-16T20:33:00;97774.44;;;12.23;100.00
18678;BME280;9469;51.114;13.914;2022-09-16T20:38:10;97778.66;;;12.12;100.00
18678;BME280;9469;51.114;13.914;2022-09-16T20:43:16;97769.44;;;12.21;100.00
18678;BME280;9469;51.114;13.914;2022-09-16T20:48:20;97778.41;;;12.17;100.00
18678;BME280;9469;51.114;13.914;2022-09-16T20:53:28;97773.22;;;12.20;100.00
18678;BME280;9469;51.114;13.914;2022-09-16T20:58:33;97764.88;;;12.22;100.00
18678;BME280;9469;51.114;13.914;2022-09-16T21:03:38;97768.75;;;12.12;100.00
18678;BME280;9469;51.114;13.914;2022-09-16T21:08:46;97769.84;;;11.99;100.00
18678;BME280;9469;51.114;13.914;2022-09-16T21:13:53;97771.19;;;12.05;100.00
18678;BME280;9469;51.114;13.914;2022-09-16T21:18:59;97768.97;;;11.95;100.00
18678;BME280;9469;51.114;13.914;2022-09-16T21:24:07;97761.66;;;12.04;100.00
18678;BME280;9469;51.114;13.914;2022-09-16T21:29:14;97771.84;;;11.90;100.00
18678;BME280;9469;51.114;13.914;2022-09-16T21:34:22;97769.63;;;11.92;100.00
18678;BME280;9469;51.114;13.914;2022-09-16T21:39:29;97778.69;;;11.79;100.00
18678;BME280;9469;51.114;13.914;2022-09-16T21:44:34;97784.94;;;11.63;100.00
18678;BME280;9469;51.114;13.914;2022-09-16T21:49:39;97784.94;;;11.63;100.00
18678;BME280;9469;51.114;13.914;2022-09-16T21:54:47;97783.25;;;11.58;100.00
18678;BME280;9469;51.114;13.914;2022-09-16T21:59:52;97777.66;;;11.72;100.00
18678;BME280;9469;51.114;13.914;2022-09-16T22:04:56;97781.19;;;11.64;100.00
18678;BME280;9469;51.114;13.914;2022-09-16T22:10:05;97772.06;;;11.52;100.00
18678;BME280;9469;51.114;13.914;2022-09-16T22:15:10;97775.81;;;11.51;100.00
18678;BME280;9469;51.114;13.914;2022-09-16T22:20:16;97775.81;;;11.51;100.00
18678;BME280;9469;51.114;13.914;2022-09-16T22:25:23;97777.91;;;11.46;100.00
18678;BME280;9469;51.114;13.914;2022-09-16T22:30:28;97767.50;;;11.53;98.95
18678;BME280;9469;51.114;13.914;2022-09-16T22:35:35;97762.13;;;11.41;99.39
18678;BME280;9469;51.114;13.914;2022-09-16T22:40:45;97757.25;;;11.43;99.17
18678;BME280;9469;51.114;13.914;2022-09-16T22:45:50;97752.81;;;11.35;99.39
18678;BME280;9469;51.114;13.914;2022-09-16T22:50:55;97754.47;;;11.39;99.47
18678;BME280;9469;51.114;13.914;2022-09-16T22:56:03;97745.13;;;11.33;99.71
18678;BME280;9469;51.114;13.914;2022-09-16T23:01:11;97758.97;;;11.27;100.00
18678;BME280;9469;51.114;13.914;2022-09-16T23:06:16;97763.41;;;11.23;100.00
18678;BME280;9469;51.114;13.914;2022-09-16T23:11:25;97758.72;;;11.20;100.00
18678;BME280;9469;51.114;13.914;2022-09-16T23:16:32;97753.97;;;11.25;100.00
18678;BME280;9469;51.114;13.914;2022-09-16T23:21:37;97750.88;;;11.23;100.00
18678;BME280;9469;51.114;13.914;2022-09-16T23:26:45;97738.53;;;11.19;100.00
18678;BME280;9469;51.114;13.914;2022-09-16T23:31:50;97744.50;;;11.16;100.00
18678;BME280;9469;51.114;13.914;2022-09-16T23:36:55;97745.41;;;11.20;100.00
18678;BME280;9469;51.114;13.914;2022-09-16T23:42:03;97745.28;;;11.16;100.00
18678;BME280;9469;51.114;13.914;2022-09-16T23:47:08;97755.75;;;11.21;100.00
18678;BME280;9469;51.114;13.914;2022-09-16T23:52:13;97740.41;;;11.18;100.00
18678;BME280;9469;51.114;13.914;2022-09-16T23:57:21;97739.72;;;11.09;100.00
